createdAt,value
2019-02-16T00:01:10.702Z,0.10
2019-02-16T00:03:39.604Z,0.10
2019-02-16T00:06:08.508Z,0.00
2019-02-16T00:08:37.347Z,0.00
2019-02-16T00:11:06.195Z,0.00
2019-02-16T00:13:35.060Z,-0.10
2019-02-16T00:16:03.972Z,-0.10
2019-02-16T00:18:32.893Z,-0.20
2019-02-16T00:21:03.978Z,-0.20
2019-02-16T00:23:32.402Z,-0.20
2019-02-16T00:26:01.245Z,-0.30
2019-02-16T00:28:30.278Z,-0.40
2019-02-16T00:30:59.128Z,-0.40
2019-02-16T00:33:28.019Z,-0.50
2019-02-16T00:35:56.860Z,-0.50
2019-02-16T00:38:25.730Z,-0.60
2019-02-16T00:40:54.580Z,-0.70
2019-02-16T00:43:23.458Z,-0.70
2019-02-16T00:45:52.340Z,-0.70
2019-02-16T00:48:21.192Z,-0.80
2019-02-16T00:50:50.051Z,-0.80
2019-02-16T00:53:18.904Z,-0.80
2019-02-16T00:55:47.746Z,-0.90
2019-02-16T00:58:16.621Z,-0.90
2019-02-16T01:00:45.459Z,-0.90
2019-02-16T01:03:18.705Z,-1.00
2019-02-16T01:05:47.657Z,-1.00
2019-02-16T01:08:16.520Z,-1.00
2019-02-16T01:10:45.431Z,-1.00
2019-02-16T01:13:14.433Z,-0.90
2019-02-16T01:15:43.276Z,-0.90
2019-02-16T01:18:12.195Z,-0.90
2019-02-16T01:20:41.112Z,-0.90
2019-02-16T01:23:10.557Z,-1.00
2019-02-16T01:25:39.538Z,-1.00
2019-02-16T01:28:08.441Z,-1.10
2019-02-16T01:30:37.433Z,-1.10
2019-02-16T01:33:06.363Z,-1.10
2019-02-16T01:35:35.205Z,-1.20
2019-02-16T01:38:04.200Z,-1.20
2019-02-16T01:40:33.139Z,-1.30
2019-02-16T01:43:02.128Z,-1.30
2019-02-16T01:45:30.995Z,-1.40
2019-02-16T01:47:59.824Z,-1.40
2019-02-16T01:50:28.747Z,-1.50
2019-02-16T01:52:57.571Z,-1.50
2019-02-16T01:55:26.496Z,-1.60
2019-02-16T01:57:55.329Z,-1.60
2019-02-16T02:00:24.253Z,-1.70
2019-02-16T02:02:53.092Z,-1.70
2019-02-16T02:05:22.081Z,-1.70
2019-02-16T02:07:50.921Z,-1.70
2019-02-16T02:10:19.830Z,-1.70
2019-02-16T02:12:48.673Z,-1.70
2019-02-16T02:15:17.588Z,-1.80
2019-02-16T02:17:46.469Z,-1.80
2019-02-16T02:20:15.473Z,-1.70
2019-02-16T02:22:44.372Z,-1.70
2019-02-16T02:25:13.297Z,-1.70
2019-02-16T02:27:42.124Z,-1.70
2019-02-16T02:30:11.137Z,-1.70
2019-02-16T02:32:39.977Z,-1.70
2019-02-16T02:35:09.013Z,-1.70
2019-02-16T02:37:37.835Z,-1.70
2019-02-16T02:40:06.821Z,-1.70
2019-02-16T02:42:35.661Z,-1.70
2019-02-16T02:45:05.028Z,-1.70
2019-02-16T02:47:33.876Z,-1.70
2019-02-16T02:50:02.758Z,-1.80
2019-02-16T02:52:31.717Z,-1.80
2019-02-16T02:55:00.565Z,-1.90
2019-02-16T02:57:29.404Z,-2.00
2019-02-16T02:59:58.320Z,-2.00
2019-02-16T03:02:27.138Z,-2.10
2019-02-16T03:04:55.981Z,-2.10
2019-02-16T03:07:24.809Z,-2.20
2019-02-16T03:09:53.652Z,-2.20
2019-02-16T03:12:22.484Z,-2.20
2019-02-16T03:14:51.335Z,-2.20
2019-02-16T03:17:20.275Z,-2.20
2019-02-16T03:19:49.143Z,-2.20
2019-02-16T03:22:18.050Z,-2.10
2019-02-16T03:24:46.992Z,-2.10
2019-02-16T03:27:51.953Z,-2.20
2019-02-16T03:31:01.408Z,-2.20
2019-02-16T03:33:41.750Z,-2.20
2019-02-16T03:36:47.172Z,-2.20
2019-02-16T03:39:28.791Z,-2.30
2019-02-16T03:41:57.717Z,-2.30
2019-02-16T03:44:26.560Z,-2.30
2019-02-16T03:46:55.395Z,-2.40
2019-02-16T03:49:24.231Z,-2.40
2019-02-16T03:51:53.084Z,-2.40
2019-02-16T03:54:21.937Z,-2.40
2019-02-16T03:56:52.753Z,-2.40
2019-02-16T03:59:21.587Z,-2.40
2019-02-16T04:01:50.424Z,-2.40
2019-02-16T04:04:19.264Z,-2.50
2019-02-16T04:06:48.111Z,-2.50
2019-02-16T04:09:16.934Z,-2.50
2019-02-16T04:11:45.796Z,-2.50
2019-02-16T04:14:14.674Z,-2.60
2019-02-16T04:16:43.597Z,-2.60
2019-02-16T04:19:12.437Z,-2.60
2019-02-16T04:21:41.265Z,-2.60
2019-02-16T04:24:10.100Z,-2.60
2019-02-16T04:26:40.567Z,-2.60
2019-02-16T04:29:09.650Z,-2.60
2019-02-16T04:31:38.492Z,-2.70
2019-02-16T04:34:07.322Z,-2.70
2019-02-16T04:36:36.229Z,-2.70
2019-02-16T04:39:06.191Z,-2.70
2019-02-16T04:41:35.057Z,-2.70
2019-02-16T04:44:03.888Z,-2.80
2019-02-16T04:46:32.734Z,-2.80
2019-02-16T04:49:01.688Z,-2.80
2019-02-16T04:51:30.560Z,-2.80
2019-02-16T04:53:59.397Z,-2.90
2019-02-16T04:56:28.218Z,-2.80
2019-02-16T04:58:57.080Z,-2.80
2019-02-16T05:01:26.065Z,-2.80
2019-02-16T05:03:54.909Z,-2.70
2019-02-16T05:06:23.760Z,-2.70
2019-02-16T05:08:52.614Z,-2.70
2019-02-16T05:11:21.446Z,-2.60
2019-02-16T05:13:50.336Z,-2.60
2019-02-16T05:16:19.251Z,-2.60
2019-02-16T05:18:48.101Z,-2.60
2019-02-16T05:21:16.936Z,-2.60
2019-02-16T05:23:45.806Z,-2.60
2019-02-16T05:26:14.700Z,-2.60
2019-02-16T05:28:43.531Z,-2.60
2019-02-16T05:31:12.387Z,-2.60
2019-02-16T05:33:41.200Z,-2.50
2019-02-16T05:36:10.040Z,-2.50
2019-02-16T05:38:38.864Z,-2.50
2019-02-16T05:41:07.709Z,-2.50
2019-02-16T05:43:36.617Z,-2.40
2019-02-16T05:46:05.475Z,-2.40
2019-02-16T05:48:34.291Z,-2.40
2019-02-16T05:51:03.141Z,-2.40
2019-02-16T05:53:32.061Z,-2.40
2019-02-16T05:56:00.898Z,-2.40
2019-02-16T05:58:29.749Z,-2.40
2019-02-16T06:00:58.580Z,-2.40
2019-02-16T06:03:27.512Z,-2.40
2019-02-16T06:05:56.362Z,-2.40
2019-02-16T06:08:25.266Z,-2.40
2019-02-16T06:10:54.099Z,-2.40
2019-02-16T06:13:22.930Z,-2.40
2019-02-16T06:15:51.788Z,-2.40
2019-02-16T06:18:20.625Z,-2.50
2019-02-16T06:20:49.488Z,-2.40
2019-02-16T06:23:18.353Z,-2.40
2019-02-16T06:25:47.226Z,-2.40
2019-02-16T06:28:16.142Z,-2.40
2019-02-16T06:30:45.034Z,-2.40
2019-02-16T06:33:14.005Z,-2.30
2019-02-16T06:35:46.513Z,-2.30
2019-02-16T06:38:15.388Z,-2.30
2019-02-16T06:40:44.213Z,-2.30
2019-02-16T06:43:13.134Z,-2.20
2019-02-16T06:45:42.048Z,-2.20
2019-02-16T06:48:10.915Z,-2.10
2019-02-16T06:50:39.843Z,-2.00
2019-02-16T06:53:13.183Z,-1.90
2019-02-16T06:55:47.165Z,-1.80
2019-02-16T06:58:16.020Z,-1.70
2019-02-16T07:00:44.953Z,-1.70
2019-02-16T07:03:13.792Z,-1.60
2019-02-16T07:05:42.673Z,-1.50
2019-02-16T07:08:11.520Z,-1.40
2019-02-16T07:10:40.370Z,-1.40
2019-02-16T07:13:09.205Z,-1.30
2019-02-16T07:15:38.063Z,-1.20
2019-02-16T07:18:21.595Z,-1.10
2019-02-16T07:20:50.451Z,-1.00
2019-02-16T07:23:22.546Z,-0.90
2019-02-16T07:25:49.934Z,-0.70
2019-02-16T07:28:18.791Z,-0.60
2019-02-16T07:30:47.614Z,-0.50
2019-02-16T07:33:16.463Z,-0.40
2019-02-16T07:35:45.289Z,-0.30
2019-02-16T07:38:14.137Z,-0.20
2019-02-16T07:40:43.049Z,-0.10
2019-02-16T07:43:30.984Z,0.10
2019-02-16T07:46:08.975Z,0.20
2019-02-16T07:48:55.589Z,0.40
2019-02-16T07:51:39.532Z,0.50
2019-02-16T07:54:32.178Z,0.70
2019-02-16T07:57:15.701Z,0.80
2019-02-16T07:59:59.251Z,1.00
2019-02-16T08:02:36.945Z,1.20
2019-02-16T08:05:14.745Z,1.40
2019-02-16T08:08:04.318Z,1.60
2019-02-16T08:10:46.437Z,1.80
2019-02-16T08:13:43.644Z,2.00
2019-02-16T08:16:29.142Z,2.20
2019-02-16T08:19:08.704Z,2.40
2019-02-16T08:21:54.705Z,2.60
2019-02-16T08:24:43.994Z,2.80
2019-02-16T08:27:34.781Z,3.10
2019-02-16T08:30:13.404Z,3.20
2019-02-16T08:32:52.410Z,3.50
2019-02-16T08:35:28.791Z,3.70
2019-02-16T08:38:22.750Z,3.90
2019-02-16T08:41:19.725Z,4.10
2019-02-16T08:43:55.693Z,4.30
2019-02-16T08:46:43.069Z,4.50
2019-02-16T08:49:34.209Z,4.60
2019-02-16T08:52:16.221Z,4.80
2019-02-16T08:55:01.169Z,5.00
2019-02-16T08:58:07.593Z,5.30
2019-02-16T09:00:58.329Z,5.50
2019-02-16T09:03:44.825Z,5.70
2019-02-16T09:06:31.324Z,5.90
2019-02-16T09:09:25.602Z,6.10
2019-02-16T09:12:02.490Z,6.30
2019-02-16T09:14:39.997Z,6.60
2019-02-16T09:17:35.248Z,6.80
2019-02-16T09:20:21.902Z,7.00
2019-02-16T09:23:14.911Z,7.20
2019-02-16T09:25:58.936Z,7.40
2019-02-16T09:28:49.749Z,7.70
2019-02-16T09:31:36.767Z,7.90
2019-02-16T09:34:17.387Z,8.10
2019-02-16T09:37:11.208Z,8.30
2019-02-16T09:39:58.492Z,8.50
2019-02-16T09:42:42.994Z,8.60
2019-02-16T09:45:20.584Z,8.80
2019-02-16T09:47:59.815Z,9.00
2019-02-16T09:50:33.077Z,9.10
2019-02-16T09:53:14.313Z,9.40
2019-02-16T09:56:05.222Z,9.40
2019-02-16T09:58:42.515Z,9.60
2019-02-16T10:01:29.281Z,9.70
2019-02-16T10:04:29.519Z,9.80
2019-02-16T10:07:32.511Z,9.90
2019-02-16T10:10:10.816Z,10.00
2019-02-16T10:13:12.484Z,10.20
2019-02-16T10:16:01.097Z,10.30
2019-02-16T10:18:47.932Z,10.40
2019-02-16T10:21:46.309Z,10.50
2019-02-16T10:24:43.896Z,10.60
2019-02-16T10:27:24.490Z,10.80
2019-02-16T10:30:15.530Z,10.90
2019-02-16T10:32:58.742Z,11.00
2019-02-16T10:35:38.794Z,11.10
2019-02-16T10:38:17.428Z,11.20
2019-02-16T10:41:17.678Z,11.30
2019-02-16T10:44:11.678Z,11.40
2019-02-16T10:46:56.601Z,11.50
2019-02-16T10:49:43.131Z,11.60
2019-02-16T10:52:18.938Z,11.70
2019-02-16T10:55:09.953Z,11.80
2019-02-16T10:58:13.081Z,11.90
2019-02-16T11:01:01.194Z,11.90
2019-02-16T11:03:45.043Z,12.10
2019-02-16T11:06:41.268Z,12.10
2019-02-16T11:09:25.604Z,12.30
2019-02-16T11:12:12.341Z,12.40
2019-02-16T11:14:55.335Z,12.40
2019-02-16T11:17:43.390Z,12.40
2019-02-16T11:20:34.632Z,12.50
2019-02-16T11:23:22.638Z,12.60
2019-02-16T11:26:11.803Z,12.70
2019-02-16T11:29:05.866Z,12.80
2019-02-16T11:31:59.964Z,12.90
2019-02-16T11:34:34.409Z,12.90
2019-02-16T11:37:14.433Z,13.10
2019-02-16T11:40:01.009Z,13.20
2019-02-16T11:42:49.002Z,13.10
2019-02-16T11:45:39.802Z,13.20
2019-02-16T11:48:25.062Z,13.30
2019-02-16T11:51:03.889Z,13.40
2019-02-16T11:53:41.065Z,13.50
2019-02-16T11:56:26.156Z,13.60
2019-02-16T11:59:18.211Z,13.70
2019-02-16T12:01:59.151Z,13.80
2019-02-16T12:04:56.174Z,13.90
2019-02-16T12:07:59.610Z,13.90
2019-02-16T12:10:41.306Z,14.00
2019-02-16T12:13:27.603Z,14.10
2019-02-16T12:16:14.802Z,14.10
2019-02-16T12:19:08.806Z,14.10
2019-02-16T12:21:53.279Z,14.30
2019-02-16T12:24:32.697Z,14.30
2019-02-16T12:27:26.582Z,14.30
2019-02-16T12:30:05.611Z,14.40
2019-02-16T12:32:46.641Z,14.40
2019-02-16T12:35:37.487Z,14.40
2019-02-16T12:38:20.743Z,14.60
2019-02-16T12:41:07.486Z,14.60
2019-02-16T12:43:49.146Z,14.60
2019-02-16T12:46:24.244Z,14.60
2019-02-16T12:48:59.822Z,14.60
2019-02-16T12:51:37.376Z,14.60
2019-02-16T12:54:37.490Z,14.60
2019-02-16T12:57:24.482Z,14.60
2019-02-16T13:00:24.679Z,14.60
2019-02-16T13:03:07.412Z,14.70
2019-02-16T13:05:38.474Z,14.70
2019-02-16T13:08:26.457Z,14.70
2019-02-16T13:11:04.491Z,14.70
2019-02-16T13:13:58.637Z,14.70
2019-02-16T13:16:38.499Z,14.70
2019-02-16T13:19:13.239Z,14.70
2019-02-16T13:21:51.143Z,14.70
2019-02-16T13:24:39.249Z,14.80
2019-02-16T13:27:43.046Z,14.90
2019-02-16T13:30:42.937Z,14.80
2019-02-16T13:33:32.277Z,14.90
2019-02-16T13:36:12.621Z,14.90
2019-02-16T13:39:13.663Z,14.90
2019-02-16T13:42:02.908Z,14.90
2019-02-16T13:44:53.946Z,15.00
2019-02-16T13:47:43.762Z,14.90
2019-02-16T13:50:23.431Z,15.00
2019-02-16T13:53:17.638Z,14.90
2019-02-16T13:56:12.112Z,14.90
2019-02-16T13:59:05.994Z,14.90
2019-02-16T14:02:03.113Z,14.90
2019-02-16T14:04:52.265Z,14.90
2019-02-16T14:07:52.430Z,14.90
2019-02-16T14:10:29.800Z,14.90
2019-02-16T14:13:16.733Z,14.80
2019-02-16T14:16:00.566Z,14.80
2019-02-16T14:18:31.042Z,14.80
2019-02-16T14:20:59.959Z,14.80
2019-02-16T14:23:28.986Z,14.70
2019-02-16T14:25:57.909Z,14.70
2019-02-16T14:28:26.789Z,14.70
2019-02-16T14:30:55.724Z,14.60
2019-02-16T14:33:24.671Z,14.60
2019-02-16T14:35:53.605Z,14.50
2019-02-16T14:38:36.793Z,14.50
2019-02-16T14:41:05.676Z,14.50
2019-02-16T14:43:34.659Z,14.40
2019-02-16T14:46:03.790Z,14.40
2019-02-16T14:48:32.741Z,14.40
2019-02-16T14:51:01.754Z,14.40
2019-02-16T14:53:30.719Z,14.30
2019-02-16T14:56:01.909Z,14.30
2019-02-16T14:58:30.801Z,14.30
2019-02-16T15:01:00.411Z,14.20
2019-02-16T15:03:30.344Z,14.20
2019-02-16T15:05:59.281Z,14.20
2019-02-16T15:08:28.173Z,14.10
2019-02-16T15:11:03.014Z,14.10
2019-02-16T15:13:31.998Z,14.00
2019-02-16T15:16:00.940Z,14.00
2019-02-16T15:18:29.893Z,14.00
2019-02-16T15:20:59.038Z,13.80
2019-02-16T15:23:28.022Z,13.80
2019-02-16T15:26:01.076Z,13.70
2019-02-16T15:28:27.658Z,13.70
2019-02-16T15:30:56.873Z,13.70
2019-02-16T15:33:25.748Z,13.80
2019-02-16T15:35:57.007Z,13.70
2019-02-16T15:38:26.377Z,13.60
2019-02-16T15:40:55.220Z,13.50
2019-02-16T15:43:24.077Z,13.40
2019-02-16T15:45:52.974Z,13.40
2019-02-16T15:48:21.808Z,13.30
2019-02-16T15:50:50.636Z,13.20
2019-02-16T15:53:19.637Z,13.00
2019-02-16T15:55:48.461Z,12.90
2019-02-16T15:58:17.328Z,12.70
2019-02-16T16:00:46.338Z,12.60
2019-02-16T16:03:15.297Z,12.50
2019-02-16T16:05:44.286Z,12.40
2019-02-16T16:08:31.304Z,12.30
2019-02-16T16:11:22.048Z,12.20
2019-02-16T16:14:18.513Z,12.00
2019-02-16T16:16:54.241Z,11.80
2019-02-16T16:19:30.051Z,11.60
2019-02-16T16:22:27.102Z,11.50
2019-02-16T16:25:16.013Z,11.30
2019-02-16T16:27:59.740Z,11.10
2019-02-16T16:30:50.731Z,11.00
2019-02-16T16:33:37.326Z,10.70
2019-02-16T16:36:16.093Z,10.50
2019-02-16T16:39:10.232Z,10.30
2019-02-16T16:41:49.300Z,10.10
2019-02-16T16:44:37.222Z,9.90
2019-02-16T16:47:24.076Z,9.70
2019-02-16T16:50:18.545Z,9.50
2019-02-16T16:52:58.944Z,9.20
2019-02-16T16:55:39.769Z,9.10
2019-02-16T16:58:27.887Z,9.00
2019-02-16T17:01:17.105Z,8.80
2019-02-16T17:04:14.373Z,8.60
2019-02-16T17:07:14.410Z,8.40
2019-02-16T17:09:50.841Z,8.10
2019-02-16T17:12:34.807Z,7.90
2019-02-16T17:15:23.984Z,7.80
2019-02-16T17:17:55.319Z,7.60
2019-02-16T17:20:55.221Z,7.50
2019-02-16T17:23:32.690Z,7.30
2019-02-16T17:26:26.808Z,7.10
2019-02-16T17:29:32.967Z,6.90
2019-02-16T17:32:15.166Z,6.80
2019-02-16T17:35:08.825Z,6.60
2019-02-16T17:38:08.594Z,6.40
2019-02-16T17:41:00.780Z,6.20
2019-02-16T17:43:43.700Z,6.00
2019-02-16T17:46:30.529Z,5.80
2019-02-16T17:49:24.808Z,5.70
2019-02-16T17:52:24.761Z,5.50
2019-02-16T17:55:12.666Z,5.30
2019-02-16T17:57:46.485Z,5.10
2019-02-16T18:00:33.444Z,4.90
2019-02-16T18:03:20.220Z,4.80
2019-02-16T18:06:11.208Z,4.60
2019-02-16T18:08:53.724Z,4.40
2019-02-16T18:11:44.586Z,4.30
2019-02-16T18:14:23.557Z,4.20
2019-02-16T18:17:07.073Z,4.10
2019-02-16T18:19:44.497Z,4.00
2019-02-16T18:22:25.652Z,3.90
2019-02-16T18:25:13.204Z,3.90
2019-02-16T18:28:19.690Z,3.80
2019-02-16T18:31:15.568Z,3.70
2019-02-16T18:34:03.028Z,3.50
2019-02-16T18:36:43.273Z,3.30
2019-02-16T18:39:34.772Z,3.10
2019-02-16T18:42:31.866Z,3.00
2019-02-16T18:45:15.525Z,2.90
2019-02-16T18:48:46.259Z,2.80
2019-02-16T18:51:32.237Z,2.70
2019-02-16T18:54:12.180Z,2.70
2019-02-16T18:57:06.462Z,2.60
2019-02-16T18:59:36.581Z,2.60
2019-02-16T19:02:27.597Z,2.50
2019-02-16T19:05:03.192Z,2.40
2019-02-16T19:07:48.945Z,2.40
2019-02-16T19:10:30.632Z,2.30
2019-02-16T19:13:16.474Z,2.20
2019-02-16T19:16:07.317Z,2.10
2019-02-16T19:19:13.669Z,2.00
2019-02-16T19:22:07.242Z,2.00
2019-02-16T19:24:42.085Z,2.00
2019-02-16T19:27:30.008Z,2.00
2019-02-16T19:30:17.944Z,2.00
2019-02-16T19:33:00.878Z,2.00
2019-02-16T19:35:50.468Z,2.10
2019-02-16T19:38:37.348Z,2.00
2019-02-16T19:41:25.332Z,2.10
2019-02-16T19:44:16.617Z,2.10
2019-02-16T19:46:53.729Z,2.10
2019-02-16T19:49:35.700Z,2.00
2019-02-16T19:52:19.404Z,2.00
2019-02-16T19:55:01.478Z,2.00
2019-02-16T19:57:42.938Z,2.00
2019-02-16T20:00:30.059Z,2.00
2019-02-16T20:03:04.912Z,2.00
2019-02-16T20:05:51.945Z,2.00
2019-02-16T20:08:35.233Z,2.00
2019-02-16T20:11:26.057Z,2.00
2019-02-16T20:14:12.829Z,2.00
2019-02-16T20:16:59.470Z,2.00
2019-02-16T20:19:46.580Z,2.00
2019-02-16T20:22:33.134Z,2.00
2019-02-16T20:25:27.290Z,2.00
2019-02-16T20:28:10.498Z,1.90
2019-02-16T20:31:04.278Z,1.90
2019-02-16T20:33:54.764Z,1.90
2019-02-16T20:36:43.201Z,1.90
2019-02-16T20:39:26.139Z,1.90
2019-02-16T20:42:12.981Z,1.90
2019-02-16T20:44:59.898Z,1.90
2019-02-16T20:47:38.114Z,1.90
2019-02-16T20:50:14.964Z,1.90
2019-02-16T20:53:01.803Z,1.90
2019-02-16T20:55:44.389Z,1.90
2019-02-16T20:58:35.433Z,2.00
2019-02-16T21:01:26.477Z,2.00
2019-02-16T21:04:32.639Z,2.10
2019-02-16T21:07:20.573Z,2.10
2019-02-16T21:10:15.846Z,2.10
2019-02-16T21:13:01.146Z,2.20
2019-02-16T21:15:49.224Z,2.20
2019-02-16T21:18:40.325Z,2.20
2019-02-16T21:21:21.873Z,2.20
2019-02-16T21:23:57.556Z,2.20
2019-02-16T21:26:37.218Z,2.30
2019-02-16T21:29:13.897Z,2.30
2019-02-16T21:31:57.198Z,2.30
2019-02-16T21:34:48.221Z,2.40
2019-02-16T21:37:30.449Z,2.40
2019-02-16T21:40:05.989Z,2.40
2019-02-16T21:42:50.059Z,2.50
2019-02-16T21:45:47.456Z,2.50
2019-02-16T21:48:30.955Z,2.60
2019-02-16T21:51:17.785Z,2.80
2019-02-16T21:53:55.050Z,2.80
2019-02-16T21:56:41.974Z,3.00
2019-02-16T21:59:21.639Z,3.00
2019-02-16T22:51:05.023Z,2.60
2019-02-16T22:53:34.097Z,2.60
2019-02-16T22:56:03.447Z,2.60
2019-02-16T22:58:32.372Z,2.60
2019-02-16T23:01:01.376Z,2.60
2019-02-16T23:03:30.361Z,2.60
2019-02-16T23:06:00.407Z,2.60
2019-02-16T23:08:29.320Z,2.70
2019-02-16T23:10:58.431Z,2.70
2019-02-16T23:13:29.942Z,2.70
2019-02-16T23:15:58.856Z,2.70
2019-02-16T23:18:29.024Z,2.70
2019-02-16T23:20:58.022Z,2.70
2019-02-16T23:23:26.948Z,2.70
2019-02-16T23:25:55.781Z,2.70
2019-02-16T23:28:24.713Z,2.70
2019-02-16T23:30:53.548Z,2.70
2019-02-16T23:33:22.459Z,2.60
2019-02-16T23:35:51.308Z,2.70
2019-02-16T23:38:20.135Z,2.60
2019-02-16T23:40:49.157Z,2.70
2019-02-16T23:43:17.997Z,2.60
2019-02-16T23:45:46.921Z,2.60
2019-02-16T23:48:15.900Z,2.60
2019-02-16T23:50:44.742Z,2.60
2019-02-16T23:53:13.677Z,2.50
2019-02-16T23:55:42.519Z,2.50
2019-02-16T23:58:11.431Z,2.50
